Afton, Minnesota
Current Conditions -  °F | °C
As of 5:11 PM on Saturday 25 Oct 2014 (Local Time) from K21D Reporting Station
Clear Clear  
Wind Chill: 61°   Ceiling: Unl
Heat Index: 61°   Visibility: 10mi
Dew Point: 27°   Wind: 12mph
Humidity: 27%   Direction: 310°NW
Pressure: 30.03"   Gusts: NA
Location:  44.9°N, 92.78°W
Report Text: K21D 252211Z AUTO 31010KT 10SM CLR 16/M03 A3003 RMK AO2
Loading
Personal Weather Stations






























Interactive Weather Map New forecast layout! Learn more

10-Day Weather Forecast

Advertisements
Track Severe Weather on mobile